sensor_id;sensor_type;location;lat;lon;timestamp;pressure;altitude;pressure_sealevel;temperature;humidity
63306;BME280;50735;52.060;1.248;2024-01-11T00:01:19;102968.44;;;-0.12;53.35
63306;BME280;50735;52.060;1.248;2024-01-11T00:03:51;102971.94;;;0.24;53.48
63306;BME280;50735;52.060;1.248;2024-01-11T00:06:23;102973.83;;;-0.18;53.50
63306;BME280;50735;52.060;1.248;2024-01-11T00:08:54;102976.49;;;0.20;53.54
63306;BME280;50735;52.060;1.248;2024-01-11T00:11:26;102979.58;;;-0.05;53.62
63306;BME280;50735;52.060;1.248;2024-01-11T00:13:58;102976.19;;;-0.25;53.67
63306;BME280;50735;52.060;1.248;2024-01-11T00:16:30;102976.48;;;-0.28;53.66
63306;BME280;50735;52.060;1.248;2024-01-11T00:19:02;102976.19;;;-0.31;53.77
63306;BME280;50735;52.060;1.248;2024-01-11T00:21:34;102973.35;;;-0.17;53.80
63306;BME280;50735;52.060;1.248;2024-01-11T00:24:06;102974.64;;;-0.19;53.82
63306;BME280;50735;52.060;1.248;2024-01-11T00:26:38;102978.49;;;0.01;53.87
63306;BME280;50735;52.060;1.248;2024-01-11T00:29:11;102984.53;;;-0.03;53.93
63306;BME280;50735;52.060;1.248;2024-01-11T00:31:42;102985.22;;;-0.08;53.95
63306;BME280;50735;52.060;1.248;2024-01-11T00:34:14;102990.34;;;-0.35;54.03
63306;BME280;50735;52.060;1.248;2024-01-11T00:36:47;102994.04;;;-0.17;54.06
63306;BME280;50735;52.060;1.248;2024-01-11T00:39:18;102997.67;;;-0.45;54.12
63306;BME280;50735;52.060;1.248;2024-01-11T00:41:50;103003.30;;;-0.27;54.21
63306;BME280;50735;52.060;1.248;2024-01-11T00:44:22;103003.49;;;-0.32;54.25
63306;BME280;50735;52.060;1.248;2024-01-11T00:46:54;103007.66;;;-0.34;54.35
63306;BME280;50735;52.060;1.248;2024-01-11T00:49:26;103007.77;;;-0.36;54.42
63306;BME280;50735;52.060;1.248;2024-01-11T00:51:58;103007.26;;;-0.39;54.47
63306;BME280;50735;52.060;1.248;2024-01-11T00:54:30;103006.95;;;-0.62;54.53
63306;BME280;50735;52.060;1.248;2024-01-11T00:57:02;103009.24;;;-0.42;54.60
63306;BME280;50735;52.060;1.248;2024-01-11T00:59:34;103015.65;;;-0.44;54.66
63306;BME280;50735;52.060;1.248;2024-01-11T01:02:06;103019.74;;;-0.46;54.65
63306;BME280;50735;52.060;1.248;2024-01-11T01:04:38;103022.96;;;-0.48;54.58
63306;BME280;50735;52.060;1.248;2024-01-11T01:07:10;103029.74;;;-0.51;54.59
63306;BME280;50735;52.060;1.248;2024-01-11T01:09:42;103031.40;;;-0.55;54.52
63306;BME280;50735;52.060;1.248;2024-01-11T01:12:15;103030.82;;;-0.59;54.58
63306;BME280;50735;52.060;1.248;2024-01-11T01:14:46;103026.16;;;-0.63;54.58
63306;BME280;50735;52.060;1.248;2024-01-11T01:17:19;103025.80;;;-0.67;54.61
63306;BME280;50735;52.060;1.248;2024-01-11T01:19:50;103025.39;;;-0.52;54.72
63306;BME280;50735;52.060;1.248;2024-01-11T01:22:22;103024.69;;;-0.72;54.78
63306;BME280;50735;52.060;1.248;2024-01-11T01:24:55;103020.70;;;-0.76;54.85
63306;BME280;50735;52.060;1.248;2024-01-11T01:27:27;103020.03;;;-0.78;54.87
63306;BME280;50735;52.060;1.248;2024-01-11T01:29:58;103021.90;;;-0.80;54.93
63306;BME280;50735;52.060;1.248;2024-01-11T01:32:30;103021.52;;;-0.82;54.95
63306;BME280;50735;52.060;1.248;2024-01-11T01:35:02;103023.63;;;-0.84;54.96
63306;BME280;50735;52.060;1.248;2024-01-11T01:37:35;103027.46;;;-0.70;55.02
63306;BME280;50735;52.060;1.248;2024-01-11T01:40:08;103029.68;;;-0.90;55.15
63306;BME280;50735;52.060;1.248;2024-01-11T01:42:42;103037.30;;;-0.75;55.18
63306;BME280;50735;52.060;1.248;2024-01-11T01:45:15;103037.90;;;-0.97;55.23
63306;BME280;50735;52.060;1.248;2024-01-11T01:47:47;103039.29;;;-1.00;55.34
63306;BME280;50735;52.060;1.248;2024-01-11T01:50:19;103045.04;;;-1.03;55.42
63306;BME280;50735;52.060;1.248;2024-01-11T01:52:52;103047.14;;;-1.05;55.42
63306;BME280;50735;52.060;1.248;2024-01-11T01:55:25;103047.74;;;-1.07;55.49
63306;BME280;50735;52.060;1.248;2024-01-11T01:57:59;103049.00;;;-1.09;55.48
63306;BME280;50735;52.060;1.248;2024-01-11T02:00:31;103053.23;;;-0.93;55.51
63306;BME280;50735;52.060;1.248;2024-01-11T02:03:04;103053.54;;;-1.13;55.50
63306;BME280;50735;52.060;1.248;2024-01-11T02:05:36;103053.41;;;-0.80;55.53
63306;BME280;50735;52.060;1.248;2024-01-11T02:08:12;103050.82;;;-1.01;55.58
63306;BME280;50735;52.060;1.248;2024-01-11T02:10:47;103053.78;;;-1.04;55.65
63306;BME280;50735;52.060;1.248;2024-01-11T02:13:19;103054.24;;;-1.24;55.66
63306;BME280;50735;52.060;1.248;2024-01-11T02:15:51;103058.44;;;-0.91;55.75
63306;BME280;50735;52.060;1.248;2024-01-11T02:18:23;103063.57;;;-1.11;55.81
63306;BME280;50735;52.060;1.248;2024-01-11T02:20:56;103062.76;;;-0.95;55.90
63306;BME280;50735;52.060;1.248;2024-01-11T02:23:28;103066.48;;;-0.97;55.93
63306;BME280;50735;52.060;1.248;2024-01-11T02:26:01;103071.47;;;-1.16;55.97
63306;BME280;50735;52.060;1.248;2024-01-11T02:28:33;103077.23;;;-1.35;56.04
63306;BME280;50735;52.060;1.248;2024-01-11T02:31:05;103079.89;;;-1.17;56.04
63306;BME280;50735;52.060;1.248;2024-01-11T02:33:38;103080.13;;;-1.35;56.04
63306;BME280;50735;52.060;1.248;2024-01-11T02:36:10;103081.68;;;-1.38;56.19
63306;BME280;50735;52.060;1.248;2024-01-11T02:38:42;103081.66;;;-1.39;56.30
63306;BME280;50735;52.060;1.248;2024-01-11T02:41:16;103086.14;;;-1.02;56.35
63306;BME280;50735;52.060;1.248;2024-01-11T02:43:48;103089.22;;;-1.02;56.36
63306;BME280;50735;52.060;1.248;2024-01-11T02:46:20;103091.05;;;-1.02;56.31
63306;BME280;50735;52.060;1.248;2024-01-11T02:48:53;103093.89;;;-1.21;56.28
63306;BME280;50735;52.060;1.248;2024-01-11T02:51:25;103098.15;;;-1.04;56.33
63306;BME280;50735;52.060;1.248;2024-01-11T02:53:57;103102.31;;;-1.21;56.44
63306;BME280;50735;52.060;1.248;2024-01-11T02:56:29;103104.67;;;-1.40;56.54
63306;BME280;50735;52.060;1.248;2024-01-11T02:59:01;103104.66;;;-1.22;56.57
63306;BME280;50735;52.060;1.248;2024-01-11T03:01:33;103107.53;;;-1.21;56.57
63306;BME280;50735;52.060;1.248;2024-01-11T03:04:05;103110.58;;;-1.21;56.62
63306;BME280;50735;52.060;1.248;2024-01-11T03:06:37;103112.31;;;-1.21;56.61
63306;BME280;50735;52.060;1.248;2024-01-11T03:09:09;103114.06;;;-1.39;56.59
63306;BME280;50735;52.060;1.248;2024-01-11T03:11:41;103117.53;;;-1.41;56.54
63306;BME280;50735;52.060;1.248;2024-01-11T03:14:13;103116.42;;;-1.24;56.55
63306;BME280;50735;52.060;1.248;2024-01-11T03:16:44;103117.32;;;-1.25;56.59
63306;BME280;50735;52.060;1.248;2024-01-11T03:19:16;103119.29;;;-1.43;56.62
63306;BME280;50735;52.060;1.248;2024-01-11T03:21:48;103121.06;;;-1.25;56.68
63306;BME280;50735;52.060;1.248;2024-01-11T03:24:20;103119.68;;;-1.25;56.79
63306;BME280;50735;52.060;1.248;2024-01-11T03:26:53;103120.95;;;-1.44;56.84
63306;BME280;50735;52.060;1.248;2024-01-11T03:29:25;103118.30;;;-1.27;56.85
63306;BME280;50735;52.060;1.248;2024-01-11T03:31:56;103118.92;;;-1.28;56.92
63306;BME280;50735;52.060;1.248;2024-01-11T03:34:28;103118.28;;;-1.27;56.93
63306;BME280;50735;52.060;1.248;2024-01-11T03:37:00;103116.60;;;-1.47;56.92
63306;BME280;50735;52.060;1.248;2024-01-11T03:39:33;103119.23;;;-1.10;56.93
63306;BME280;50735;52.060;1.248;2024-01-11T03:42:05;103120.84;;;-1.12;56.80
63306;BME280;50735;52.060;1.248;2024-01-11T03:44:37;103125.20;;;-1.33;56.90
63306;BME280;50735;52.060;1.248;2024-01-11T03:47:09;103125.92;;;-1.33;56.81
63306;BME280;50735;52.060;1.248;2024-01-11T03:49:41;103125.65;;;-1.36;57.04
63306;BME280;50735;52.060;1.248;2024-01-11T03:52:12;103125.60;;;-1.38;57.00
63306;BME280;50735;52.060;1.248;2024-01-11T03:54:44;103128.42;;;-1.21;56.98
63306;BME280;50735;52.060;1.248;2024-01-11T03:57:16;103123.40;;;-1.42;57.11
63306;BME280;50735;52.060;1.248;2024-01-11T03:59:48;103127.64;;;-1.25;57.18
63306;BME280;50735;52.060;1.248;2024-01-11T04:02:20;103131.81;;;-1.43;56.68
63306;BME280;50735;52.060;1.248;2024-01-11T04:04:52;103132.31;;;-1.51;57.03
63306;BME280;50735;52.060;1.248;2024-01-11T04:07:24;103130.95;;;-1.34;57.08
63306;BME280;50735;52.060;1.248;2024-01-11T04:09:55;103126.57;;;-1.34;57.13
63306;BME280;50735;52.060;1.248;2024-01-11T04:12:27;103125.30;;;-1.50;57.11
63306;BME280;50735;52.060;1.248;2024-01-11T04:15:00;103122.28;;;-1.51;57.11
63306;BME280;50735;52.060;1.248;2024-01-11T04:17:31;103124.90;;;-1.50;57.23
63306;BME280;50735;52.060;1.248;2024-01-11T04:20:04;103131.11;;;-1.48;57.26
63306;BME280;50735;52.060;1.248;2024-01-11T04:22:37;103131.37;;;-1.66;57.11
63306;BME280;50735;52.060;1.248;2024-01-11T04:25:09;103133.78;;;-1.28;57.13
63306;BME280;50735;52.060;1.248;2024-01-11T04:27:41;103133.51;;;-1.44;56.85
63306;BME280;50735;52.060;1.248;2024-01-11T04:30:13;103134.39;;;-1.45;57.07
63306;BME280;50735;52.060;1.248;2024-01-11T04:32:45;103136.70;;;-1.61;56.88
63306;BME280;50735;52.060;1.248;2024-01-11T04:35:17;103133.58;;;-1.44;56.98
63306;BME280;50735;52.060;1.248;2024-01-11T04:37:49;103133.10;;;-1.45;57.06
63306;BME280;50735;52.060;1.248;2024-01-11T04:40:20;103132.13;;;-1.29;57.11
63306;BME280;50735;52.060;1.248;2024-01-11T04:42:52;103134.83;;;-1.46;57.04
63306;BME280;50735;52.060;1.248;2024-01-11T04:45:24;103136.39;;;-1.48;56.63
63306;BME280;50735;52.060;1.248;2024-01-11T04:47:56;103136.56;;;-1.36;57.22
63306;BME280;50735;52.060;1.248;2024-01-11T04:50:27;103136.67;;;-1.34;57.25
63306;BME280;50735;52.060;1.248;2024-01-11T04:52:59;103138.07;;;-1.55;56.92
63306;BME280;50735;52.060;1.248;2024-01-11T04:55:31;103136.42;;;-1.41;57.11
63306;BME280;50735;52.060;1.248;2024-01-11T04:58:03;103139.83;;;-1.42;57.25
63306;BME280;50735;52.060;1.248;2024-01-11T05:00:34;103142.95;;;-1.79;57.27
63306;BME280;50735;52.060;1.248;2024-01-11T05:03:07;103145.88;;;-1.64;57.13
63306;BME280;50735;52.060;1.248;2024-01-11T05:05:39;103149.30;;;-1.74;57.69
63306;BME280;50735;52.060;1.248;2024-01-11T05:08:11;103150.59;;;-1.59;57.62
63306;BME280;50735;52.060;1.248;2024-01-11T05:10:43;103153.20;;;-1.59;57.76
63306;BME280;50735;52.060;1.248;2024-01-11T05:13:14;103151.93;;;-1.58;57.74
63306;BME280;50735;52.060;1.248;2024-01-11T05:15:47;103153.72;;;-1.72;57.71
63306;BME280;50735;52.060;1.248;2024-01-11T05:18:19;103152.74;;;-1.61;57.74
63306;BME280;50735;52.060;1.248;2024-01-11T05:20:51;103154.02;;;-1.61;57.75
63306;BME280;50735;52.060;1.248;2024-01-11T05:23:23;103158.09;;;-1.61;58.00
63306;BME280;50735;52.060;1.248;2024-01-11T05:25:55;103160.32;;;-1.79;57.94
63306;BME280;50735;52.060;1.248;2024-01-11T05:28:27;103164.14;;;-1.63;58.06
63306;BME280;50735;52.060;1.248;2024-01-11T05:30:59;103166.48;;;-1.67;58.14
63306;BME280;50735;52.060;1.248;2024-01-11T05:33:31;103173.84;;;-1.97;59.55
63306;BME280;50735;52.060;1.248;2024-01-11T05:36:03;103175.85;;;-1.93;59.25
63306;BME280;50735;52.060;1.248;2024-01-11T05:38:35;103177.66;;;-1.67;59.47
63306;BME280;50735;52.060;1.248;2024-01-11T05:41:07;103178.51;;;-1.85;59.17
63306;BME280;50735;52.060;1.248;2024-01-11T05:43:40;103181.92;;;-1.98;58.75
63306;BME280;50735;52.060;1.248;2024-01-11T05:46:12;103187.59;;;-1.76;58.54
63306;BME280;50735;52.060;1.248;2024-01-11T05:48:44;103190.30;;;-1.89;58.33
63306;BME280;50735;52.060;1.248;2024-01-11T05:51:16;103195.32;;;-1.87;58.40
63306;BME280;50735;52.060;1.248;2024-01-11T05:53:48;103197.46;;;-1.79;58.27
63306;BME280;50735;52.060;1.248;2024-01-11T05:56:20;103196.86;;;-1.71;58.12
63306;BME280;50735;52.060;1.248;2024-01-11T05:58:52;103197.47;;;-1.59;57.72
63306;BME280;50735;52.060;1.248;2024-01-11T06:01:24;103196.42;;;-1.54;57.48
63306;BME280;50735;52.060;1.248;2024-01-11T06:03:56;103202.29;;;-1.50;57.28
63306;BME280;50735;52.060;1.248;2024-01-11T06:06:28;103205.76;;;-1.53;57.29
63306;BME280;50735;52.060;1.248;2024-01-11T06:09:00;103207.01;;;-1.49;57.20
63306;BME280;50735;52.060;1.248;2024-01-11T06:11:32;103210.14;;;-1.42;57.12
63306;BME280;50735;52.060;1.248;2024-01-11T06:14:04;103214.06;;;-1.38;56.96
63306;BME280;50735;52.060;1.248;2024-01-11T06:16:36;103218.31;;;-1.52;56.80
63306;BME280;50735;52.060;1.248;2024-01-11T06:19:08;103218.94;;;-1.32;56.63
63306;BME280;50735;52.060;1.248;2024-01-11T06:21:39;103214.82;;;-1.51;56.45
63306;BME280;50735;52.060;1.248;2024-01-11T06:24:12;103218.20;;;-1.34;56.54
63306;BME280;50735;52.060;1.248;2024-01-11T06:26:44;103221.92;;;-1.35;56.42
63306;BME280;50735;52.060;1.248;2024-01-11T06:29:16;103222.82;;;-1.38;56.50
63306;BME280;50735;52.060;1.248;2024-01-11T06:31:48;103222.39;;;-1.47;56.01
63306;BME280;50735;52.060;1.248;2024-01-11T06:34:20;103225.30;;;-1.55;55.85
63306;BME280;50735;52.060;1.248;2024-01-11T06:36:54;103229.20;;;-1.61;56.28
63306;BME280;50735;52.060;1.248;2024-01-11T06:39:26;103226.94;;;-1.84;55.97
63306;BME280;50735;52.060;1.248;2024-01-11T06:41:58;103225.63;;;-1.68;56.06
63306;BME280;50735;52.060;1.248;2024-01-11T06:44:30;103226.24;;;-1.65;56.40
63306;BME280;50735;52.060;1.248;2024-01-11T06:47:02;103228.34;;;-1.58;56.32
63306;BME280;50735;52.060;1.248;2024-01-11T06:49:38;103231.11;;;-1.54;56.31
63306;BME280;50735;52.060;1.248;2024-01-11T06:52:09;103229.52;;;-1.55;56.10
63306;BME280;50735;52.060;1.248;2024-01-11T06:54:41;103231.29;;;-1.54;56.21
63306;BME280;50735;52.060;1.248;2024-01-11T06:57:13;103231.29;;;-1.74;55.75
63306;BME280;50735;52.060;1.248;2024-01-11T06:59:46;103234.07;;;-1.57;56.17
63306;BME280;50735;52.060;1.248;2024-01-11T07:02:17;103235.57;;;-1.54;56.10
63306;BME280;50735;52.060;1.248;2024-01-11T07:04:49;103231.65;;;-1.54;56.02
63306;BME280;50735;52.060;1.248;2024-01-11T07:07:21;103236.79;;;-1.56;55.92
63306;BME280;50735;52.060;1.248;2024-01-11T07:09:54;103237.29;;;-1.57;55.33
63306;BME280;50735;52.060;1.248;2024-01-11T07:12:26;103240.54;;;-1.62;55.94
63306;BME280;50735;52.060;1.248;2024-01-11T07:14:58;103240.99;;;-1.42;55.97
63306;BME280;50735;52.060;1.248;2024-01-11T07:17:30;103246.77;;;-1.65;56.12
63306;BME280;50735;52.060;1.248;2024-01-11T07:20:02;103254.70;;;-1.64;56.13
63306;BME280;50735;52.060;1.248;2024-01-11T07:22:34;103258.16;;;-1.66;56.13
63306;BME280;50735;52.060;1.248;2024-01-11T07:25:07;103261.44;;;-1.67;55.92
63306;BME280;50735;52.060;1.248;2024-01-11T07:27:39;103266.97;;;-1.71;56.02
63306;BME280;50735;52.060;1.248;2024-01-11T07:30:12;103278.02;;;-1.73;55.78
63306;BME280;50735;52.060;1.248;2024-01-11T07:32:44;103281.07;;;-1.76;56.09
63306;BME280;50735;52.060;1.248;2024-01-11T07:35:16;103283.89;;;-1.74;56.94
63306;BME280;50735;52.060;1.248;2024-01-11T07:37:48;103291.72;;;-1.78;56.75
63306;BME280;50735;52.060;1.248;2024-01-11T07:40:20;103292.16;;;-1.78;58.65
63306;BME280;50735;52.060;1.248;2024-01-11T07:42:52;103294.29;;;-1.85;56.67
63306;BME280;50735;52.060;1.248;2024-01-11T07:45:24;103297.58;;;-1.87;56.56
63306;BME280;50735;52.060;1.248;2024-01-11T07:47:56;103297.36;;;-1.86;57.71
63306;BME280;50735;52.060;1.248;2024-01-11T07:50:28;103299.32;;;-1.79;58.02
63306;BME280;50735;52.060;1.248;2024-01-11T07:53:00;103312.42;;;-1.56;57.28
63306;BME280;50735;52.060;1.248;2024-01-11T07:55:32;103315.94;;;-1.77;57.06
63306;BME280;50735;52.060;1.248;2024-01-11T07:58:04;103325.04;;;-1.82;57.05
63306;BME280;50735;52.060;1.248;2024-01-11T08:00:36;103332.27;;;-1.81;56.92
63306;BME280;50735;52.060;1.248;2024-01-11T08:03:08;103333.33;;;-1.81;57.39
63306;BME280;50735;52.060;1.248;2024-01-11T08:05:40;103330.94;;;-1.79;57.30
63306;BME280;50735;52.060;1.248;2024-01-11T08:08:12;103336.79;;;-1.77;57.44
63306;BME280;50735;52.060;1.248;2024-01-11T08:10:44;103334.43;;;-1.51;57.56
63306;BME280;50735;52.060;1.248;2024-01-11T08:13:16;103329.12;;;-1.68;57.58
63306;BME280;50735;52.060;1.248;2024-01-11T08:15:48;103328.08;;;-1.67;57.82
63306;BME280;50735;52.060;1.248;2024-01-11T08:18:20;103333.60;;;-1.50;58.58
63306;BME280;50735;52.060;1.248;2024-01-11T08:20:52;103339.40;;;-1.50;60.89
63306;BME280;50735;52.060;1.248;2024-01-11T08:23:24;103329.24;;;-1.54;62.55
63306;BME280;50735;52.060;1.248;2024-01-11T08:25:56;103331.07;;;-1.47;59.95
63306;BME280;50735;52.060;1.248;2024-01-11T08:28:28;103333.27;;;-1.62;59.26
63306;BME280;50735;52.060;1.248;2024-01-11T08:31:00;103342.29;;;-1.45;59.34
63306;BME280;50735;52.060;1.248;2024-01-11T08:33:32;103341.80;;;-1.35;59.14
63306;BME280;50735;52.060;1.248;2024-01-11T08:36:04;103344.07;;;-1.24;59.10
63306;BME280;50735;52.060;1.248;2024-01-11T08:38:37;103348.80;;;-1.14;58.89
63306;BME280;50735;52.060;1.248;2024-01-11T08:41:09;103348.80;;;-1.08;59.08
63306;BME280;50735;52.060;1.248;2024-01-11T08:43:41;103351.14;;;-1.27;59.20
63306;BME280;50735;52.060;1.248;2024-01-11T08:46:23;103351.89;;;-0.95;59.27
63306;BME280;50735;52.060;1.248;2024-01-11T08:48:55;103351.63;;;-1.09;59.69
63306;BME280;50735;52.060;1.248;2024-01-11T08:51:27;103354.83;;;-0.49;60.24
63306;BME280;50735;52.060;1.248;2024-01-11T08:53:59;103361.08;;;-0.23;59.66
63306;BME280;50735;52.060;1.248;2024-01-11T08:56:31;103364.33;;;-0.25;59.10
63306;BME280;50735;52.060;1.248;2024-01-11T08:59:03;103370.21;;;0.22;60.43
63306;BME280;50735;52.060;1.248;2024-01-11T09:01:35;103370.23;;;0.82;59.67
63306;BME280;50735;52.060;1.248;2024-01-11T09:04:07;103373.42;;;1.72;59.28
63306;BME280;50735;52.060;1.248;2024-01-11T09:06:39;103373.99;;;1.94;57.60
63306;BME280;50735;52.060;1.248;2024-01-11T09:09:11;103373.26;;;2.65;56.82
63306;BME280;50735;52.060;1.248;2024-01-11T09:11:43;103369.76;;;3.19;55.10
63306;BME280;50735;52.060;1.248;2024-01-11T09:14:15;103366.29;;;3.34;54.40
63306;BME280;50735;52.060;1.248;2024-01-11T09:16:47;103364.07;;;3.70;53.21
63306;BME280;50735;52.060;1.248;2024-01-11T09:19:19;103363.76;;;4.12;51.31
63306;BME280;50735;52.060;1.248;2024-01-11T09:21:51;103353.95;;;4.59;50.28
63306;BME280;50735;52.060;1.248;2024-01-11T09:24:23;103352.82;;;4.40;48.01
63306;BME280;50735;52.060;1.248;2024-01-11T09:26:54;103361.37;;;4.60;49.20
63306;BME280;50735;52.060;1.248;2024-01-11T09:29:26;103367.13;;;4.83;47.93
63306;BME280;50735;52.060;1.248;2024-01-11T09:31:58;103368.14;;;4.49;47.17
63306;BME280;50735;52.060;1.248;2024-01-11T09:34:31;103366.33;;;3.94;49.29
63306;BME280;50735;52.060;1.248;2024-01-11T09:37:03;103372.19;;;4.09;48.48
63306;BME280;50735;52.060;1.248;2024-01-11T09:39:35;103372.57;;;4.22;48.48
63306;BME280;50735;52.060;1.248;2024-01-11T09:42:08;103376.69;;;3.76;48.36
63306;BME280;50735;52.060;1.248;2024-01-11T09:44:41;103383.37;;;3.32;49.11
63306;BME280;50735;52.060;1.248;2024-01-11T09:47:15;103384.89;;;3.24;50.05
63306;BME280;50735;52.060;1.248;2024-01-11T09:49:48;103392.79;;;2.81;50.89
63306;BME280;50735;52.060;1.248;2024-01-11T09:52:22;103394.86;;;2.63;51.70
63306;BME280;50735;52.060;1.248;2024-01-11T09:54:54;103396.46;;;2.52;51.79
63306;BME280;50735;52.060;1.248;2024-01-11T09:57:29;103397.37;;;2.50;52.80
63306;BME280;50735;52.060;1.248;2024-01-11T10:00:04;103404.70;;;2.00;53.82
63306;BME280;50735;52.060;1.248;2024-01-11T10:02:35;103404.79;;;1.65;55.45
63306;BME280;50735;52.060;1.248;2024-01-11T10:05:08;103408.17;;;1.61;55.59
63306;BME280;50735;52.060;1.248;2024-01-11T10:07:40;103413.91;;;1.45;56.02
63306;BME280;50735;52.060;1.248;2024-01-11T10:10:12;103416.03;;;1.53;56.57
63306;BME280;50735;52.060;1.248;2024-01-11T10:12:44;103418.48;;;1.52;56.97
63306;BME280;50735;52.060;1.248;2024-01-11T10:15:16;103419.04;;;1.46;57.13
63306;BME280;50735;52.060;1.248;2024-01-11T10:17:48;103425.49;;;1.58;57.24
63306;BME280;50735;52.060;1.248;2024-01-11T10:20:20;103428.49;;;1.70;57.15
63306;BME280;50735;52.060;1.248;2024-01-11T10:22:52;103432.37;;;1.63;56.96
63306;BME280;50735;52.060;1.248;2024-01-11T10:25:24;103434.60;;;1.59;57.53
63306;BME280;50735;52.060;1.248;2024-01-11T10:27:56;103439.52;;;1.51;58.63
63306;BME280;50735;52.060;1.248;2024-01-11T10:30:28;103444.20;;;1.50;58.53
63306;BME280;50735;52.060;1.248;2024-01-11T10:33:00;103439.09;;;1.66;59.05
63306;BME280;50735;52.060;1.248;2024-01-11T10:35:32;103439.00;;;1.65;58.71
63306;BME280;50735;52.060;1.248;2024-01-11T10:38:08;103444.46;;;1.68;58.71
63306;BME280;50735;52.060;1.248;2024-01-11T10:40:42;103437.93;;;1.33;59.86
63306;BME280;50735;52.060;1.248;2024-01-11T10:43:19;103439.86;;;1.31;60.13
63306;BME280;50735;52.060;1.248;2024-01-11T10:45:55;103440.53;;;1.19;60.56
63306;BME280;50735;52.060;1.248;2024-01-11T10:48:31;103445.28;;;1.40;60.39
63306;BME280;50735;52.060;1.248;2024-01-11T10:51:07;103446.80;;;1.18;60.19
63306;BME280;50735;52.060;1.248;2024-01-11T10:53:42;103454.27;;;1.16;60.65
63306;BME280;50735;52.060;1.248;2024-01-11T10:56:15;103454.27;;;1.22;60.78
63306;BME280;50735;52.060;1.248;2024-01-11T10:58:48;103453.15;;;1.25;60.53
63306;BME280;50735;52.060;1.248;2024-01-11T11:01:20;103458.25;;;1.28;60.45
63306;BME280;50735;52.060;1.248;2024-01-11T11:03:54;103455.57;;;1.33;60.37
63306;BME280;50735;52.060;1.248;2024-01-11T11:06:27;103457.52;;;1.38;60.28
63306;BME280;50735;52.060;1.248;2024-01-11T11:09:01;103453.44;;;1.28;60.13
63306;BME280;50735;52.060;1.248;2024-01-11T11:11:33;103453.46;;;1.37;60.65
63306;BME280;50735;52.060;1.248;2024-01-11T11:14:06;103456.18;;;1.31;60.39
63306;BME280;50735;52.060;1.248;2024-01-11T11:16:39;103456.48;;;1.47;60.44
63306;BME280;50735;52.060;1.248;2024-01-11T11:19:11;103458.49;;;1.63;64.85
63306;BME280;50735;52.060;1.248;2024-01-11T11:21:43;103458.94;;;1.59;60.80
63306;BME280;50735;52.060;1.248;2024-01-11T11:24:16;103458.18;;;1.40;60.53
63306;BME280;50735;52.060;1.248;2024-01-11T11:26:48;103465.79;;;1.22;60.79
63306;BME280;50735;52.060;1.248;2024-01-11T11:29:20;103462.58;;;1.40;60.75
63306;BME280;50735;52.060;1.248;2024-01-11T11:31:52;103465.63;;;1.36;60.83
63306;BME280;50735;52.060;1.248;2024-01-11T11:34:40;103464.96;;;1.10;60.51
63306;BME280;50735;52.060;1.248;2024-01-11T11:37:12;103463.15;;;0.90;61.21
63306;BME280;50735;52.060;1.248;2024-01-11T11:39:44;103463.01;;;1.00;61.19
63306;BME280;50735;52.060;1.248;2024-01-11T11:42:16;103461.27;;;1.45;60.29
63306;BME280;50735;52.060;1.248;2024-01-11T11:44:48;103460.58;;;1.32;60.55
63306;BME280;50735;52.060;1.248;2024-01-11T11:47:22;103462.88;;;1.21;60.73
63306;BME280;50735;52.060;1.248;2024-01-11T11:50:02;103465.83;;;1.65;60.35
63306;BME280;50735;52.060;1.248;2024-01-11T11:52:37;103466.19;;;1.56;59.83
63306;BME280;50735;52.060;1.248;2024-01-11T11:55:09;103470.17;;;1.64;59.76
63306;BME280;50735;52.060;1.248;2024-01-11T11:57:43;103467.81;;;1.58;60.37
63306;BME280;50735;52.060;1.248;2024-01-11T12:00:16;103467.86;;;1.64;59.82
63306;BME280;50735;52.060;1.248;2024-01-11T12:02:48;103469.79;;;1.84;59.27
63306;BME280;50735;52.060;1.248;2024-01-11T12:05:21;103473.52;;;1.45;59.57
63306;BME280;50735;52.060;1.248;2024-01-11T12:07:53;103478.19;;;1.47;60.16
63306;BME280;50735;52.060;1.248;2024-01-11T12:10:25;103480.84;;;1.34;60.91
63306;BME280;50735;52.060;1.248;2024-01-11T12:12:57;103481.89;;;1.28;60.90
63306;BME280;50735;52.060;1.248;2024-01-11T12:15:29;103478.31;;;1.33;60.78
63306;BME280;50735;52.060;1.248;2024-01-11T12:18:02;103476.18;;;1.50;60.89
63306;BME280;50735;52.060;1.248;2024-01-11T12:20:34;103475.36;;;1.20;61.17
63306;BME280;50735;52.060;1.248;2024-01-11T12:23:05;103471.98;;;1.23;61.18
63306;BME280;50735;52.060;1.248;2024-01-11T12:25:37;103470.15;;;1.49;60.42
63306;BME280;50735;52.060;1.248;2024-01-11T12:28:09;103470.43;;;1.44;60.58
63306;BME280;50735;52.060;1.248;2024-01-11T12:30:41;103465.27;;;1.60;60.14
63306;BME280;50735;52.060;1.248;2024-01-11T12:33:14;103461.16;;;1.52;60.12
63306;BME280;50735;52.060;1.248;2024-01-11T12:35:46;103459.80;;;1.72;61.16
63306;BME280;50735;52.060;1.248;2024-01-11T12:38:18;103456.98;;;1.95;59.85
63306;BME280;50735;52.060;1.248;2024-01-11T12:40:50;103452.56;;;1.90;59.06
63306;BME280;50735;52.060;1.248;2024-01-11T12:43:23;103450.99;;;1.79;58.76
63306;BME280;50735;52.060;1.248;2024-01-11T12:45:55;103450.96;;;2.11;58.59
63306;BME280;50735;52.060;1.248;2024-01-11T12:48:27;103445.73;;;1.75;59.15
63306;BME280;50735;52.060;1.248;2024-01-11T12:50:59;103445.71;;;2.20;59.14
63306;BME280;50735;52.060;1.248;2024-01-11T12:53:31;103444.56;;;2.38;58.49
63306;BME280;50735;52.060;1.248;2024-01-11T12:56:04;103443.19;;;2.09;58.38
63306;BME280;50735;52.060;1.248;2024-01-11T12:58:37;103441.89;;;2.41;57.86
63306;BME280;50735;52.060;1.248;2024-01-11T13:01:09;103438.75;;;2.39;58.23
63306;BME280;50735;52.060;1.248;2024-01-11T13:03:44;103439.68;;;2.64;58.01
63306;BME280;50735;52.060;1.248;2024-01-11T13:06:17;103439.55;;;2.54;57.99
63306;BME280;50735;52.060;1.248;2024-01-11T13:08:49;103440.34;;;2.47;58.03
63306;BME280;50735;52.060;1.248;2024-01-11T13:11:21;103432.01;;;2.36;57.74
63306;BME280;50735;52.060;1.248;2024-01-11T13:13:53;103426.49;;;2.41;57.50
63306;BME280;50735;52.060;1.248;2024-01-11T13:16:25;103424.72;;;2.43;57.58
63306;BME280;50735;52.060;1.248;2024-01-11T13:18:56;103421.18;;;2.53;57.41